ETEB/QOB METAR and TAF weather

Enter ICAO airport designator
Station Type Date Time Source
ETEB METAR 2018/12/10 19:26 UTC NOAA

ETEB 101926Z AUTO 29010KT 9999 BKN014 BKN019 BKN025 02/01 A3009 RMK AO2 SLP224 $


Station Type Date Time Source
ETEB Decoded METAR 2018/12/10 19:26 UTC NOAA

Ansbach / Katterbach, Germany (ETEB) 49-19N 010-38E 476M
Dec 10, 2018 - 02:26 PM EST / 2018.12.10 1926 UTC
Wind: from the WNW (290 degrees) at 12 MPH (10 KT):0
Visibility: greater than 7 mile(s):0
Sky conditions: mostly cloudy
Temperature: 35 F (2 C)
Windchill: 26 F (-3 C):1
Dew Point: 33 F (1 C)
Relative Humidity: 93%
Pressure (altimeter): 30.09 in. Hg (1018 hPa)
ob: ETEB 101926Z AUTO 29010KT 9999 BKN014 BKN019 BKN025 02/01 A3009 RMK AO2 SLP224
cycle: 19

Station Type Date Time Source
ETEB TAF 2018/12/10 18:35 UTC NOAA

TAF
AMD ETEB 101829Z 1018/1120 28010G18KT 9999 BKN013 OVC024 QNH3008INS
TEMPO 1018/1020 9000 -RASN OVC015
BECMG 1019/1020 29012KT 9999 BKN015 620404 QNH3010INS
BECMG 1106/1107 28013KT 5000 SHSN BKN015 620208 QNH3011INS TX05/1113Z TN01/1023Z


Example: see airport list